Time;durP1;ratioP1;P1;durP2;ratioP2;P2;SDS_P1;SDS_P2;PMS_P1;PMS_P2;Temp;Humidity;BMP_temperature;BMP_pressure;BME280_temperature;BME280_humidity;BME280_pressure;Samples;Min_cycle;Max_cycle;Signal;HPM_P1;HPM_P2
2022/09/25 00:00:29;;;;;;;35.55;29.00;;;21.30;53.60;;;;;;4462179;58;21510;-31
2022/09/25 00:05:30;;;;;;;34.38;28.38;;;21.30;53.60;;;;;;4445222;58;21068;-33
2022/09/25 00:10:32;;;;;;;35.83;28.83;;;21.30;53.70;;;;;;4440215;62;21088;-35
2022/09/25 00:15:33;;;;;;;33.50;27.90;;;21.30;53.70;;;;;;4439979;59;21538;-30
2022/09/25 00:20:35;;;;;;;36.65;29.70;;;21.30;53.70;;;;;;4454625;59;21116;-30
2022/09/25 00:25:36;;;;;;;35.58;28.60;;;21.30;53.70;;;;;;4453766;58;21598;-28
2022/09/25 00:30:39;;;;;;;34.67;27.42;;;21.30;53.70;;;;;;4439975;62;21079;-33
2022/09/25 00:35:40;;;;;;;35.65;27.90;;;21.20;53.70;;;;;;4461918;58;21060;-31
2022/09/25 00:40:41;;;;;;;31.98;26.70;;;21.30;53.70;;;;;;4488133;58;21093;-27
2022/09/25 00:45:44;;;;;;;33.03;27.13;;;21.30;53.70;;;;;;4464040;58;21040;-30
2022/09/25 00:50:52;;;;;;;33.38;27.15;;;21.30;53.70;;;;;;4468857;59;21578;-26
2022/09/25 00:55:55;;;;;;;31.85;26.23;;;21.30;53.70;;;;;;4450528;59;21036;-32
2022/09/25 01:00:56;;;;;;;33.15;26.40;;;21.30;53.70;;;;;;4448155;59;21538;-35
2022/09/25 01:05:59;;;;;;;35.38;26.98;;;21.30;53.70;;;;;;4439331;62;21056;-34
2022/09/25 01:11:00;;;;;;;31.98;25.92;;;21.30;53.70;;;;;;4440156;63;21542;-31
2022/09/25 01:16:37;;;;;;;33.80;26.45;;;21.20;53.70;;;;;;4439508;63;21411;-28
2022/09/25 01:21:51;;;;;;;30.60;25.50;;;21.20;53.70;;;;;;4451208;59;21088;-31
2022/09/25 01:28:03;;;;;;;32.35;25.62;;;21.30;53.70;;;;;;4442692;59;21134;-28
2022/09/25 01:33:20;;;;;;;31.80;26.20;;;21.20;53.70;;;;;;4486494;59;21071;-33
2022/09/25 01:38:52;;;;;;;29.83;25.05;;;21.20;53.70;;;;;;4440867;63;21073;-28
2022/09/25 01:44:39;;;;;;;29.00;24.42;;;21.20;53.70;;;;;;4445633;59;21056;-26
2022/09/25 01:49:59;;;;;;;30.00;24.37;;;21.20;53.70;;;;;;4448575;59;21653;-34
2022/09/25 01:55:09;;;;;;;31.42;26.12;;;21.20;53.70;;;;;;4442489;59;21057;-32
2022/09/25 02:00:21;;;;;;;29.67;24.30;;;21.20;53.70;;;;;;4465169;59;21158;-35
2022/09/25 02:05:45;;;;;;;29.73;23.92;;;21.20;53.80;;;;;;4458554;59;21040;-34
2022/09/25 02:10:54;;;;;;;28.95;25.27;;;21.20;53.70;;;;;;4470582;59;21110;-30
2022/09/25 02:15:59;;;;;;;29.73;24.12;;;21.20;53.70;;;;;;4440570;59;21735;-32
2022/09/25 02:24:49;;;;;;;29.77;24.60;;;21.20;53.70;;;;;;4440096;63;21107;-26
2022/09/25 02:29:51;;;;;;;26.67;22.90;;;21.20;53.80;;;;;;4457581;59;21045;-30
2022/09/25 02:34:52;;;;;;;26.80;22.65;;;21.20;53.70;;;;;;4440159;63;21590;-31
2022/09/25 02:39:57;;;;;;;28.05;23.23;;;21.20;53.70;;;;;;4444737;58;21609;-31
2022/09/25 02:45:48;;;;;;;26.15;23.08;;;21.20;53.70;;;;;;4461156;59;21156;-29
2022/09/25 02:51:19;;;;;;;26.83;21.73;;;21.20;53.80;;;;;;4474795;59;21618;-35
2022/09/25 02:56:28;;;;;;;27.58;22.80;;;21.20;53.80;;;;;;4470619;59;21565;-29
2022/09/25 03:01:32;;;;;;;27.50;22.90;;;21.20;53.70;;;;;;4453508;59;21108;-27
2022/09/25 03:06:32;;;;;;;28.48;22.45;;;21.20;53.70;;;;;;4525569;59;21132;-27
2022/09/25 03:11:40;;;;;;;25.67;21.42;;;21.20;53.70;;;;;;4446239;58;21040;-32
2022/09/25 03:16:49;;;;;;;26.33;22.20;;;21.20;53.80;;;;;;4440484;60;21518;-29
2022/09/25 03:21:53;;;;;;;25.85;22.02;;;21.20;53.70;;;;;;4467522;59;21127;-28
2022/09/25 03:26:54;;;;;;;26.12;21.17;;;21.20;53.70;;;;;;4456985;58;21607;-28
2022/09/25 03:31:55;;;;;;;27.25;21.85;;;21.20;53.70;;;;;;4458443;59;21032;-32
2022/09/25 03:36:56;;;;;;;24.08;20.37;;;21.20;53.70;;;;;;4460692;58;21044;-30
2022/09/25 03:41:56;;;;;;;23.77;20.48;;;21.20;53.70;;;;;;4458694;58;21534;-29
2022/09/25 03:46:57;;;;;;;25.00;21.00;;;21.20;53.70;;;;;;4451848;59;21553;-29
2022/09/25 03:51:58;;;;;;;25.20;20.55;;;21.20;53.70;;;;;;4440161;62;21342;-26
2022/09/25 03:56:59;;;;;;;22.77;19.77;;;21.20;53.70;;;;;;4440098;62;21575;-27
2022/09/25 04:02:01;;;;;;;23.52;19.30;;;21.20;53.70;;;;;;4466832;58;21056;-27
2022/09/25 04:07:02;;;;;;;23.35;19.70;;;21.20;53.70;;;;;;4478056;58;21097;-28
2022/09/25 04:12:05;;;;;;;22.17;18.87;;;21.20;53.80;;;;;;4483002;59;21111;-27
2022/09/25 04:17:06;;;;;;;23.55;19.77;;;21.20;53.70;;;;;;4440382;62;21504;-29
2022/09/25 04:22:07;;;;;;;22.30;19.15;;;21.20;53.70;;;;;;4496473;58;21630;-27
2022/09/25 04:27:09;;;;;;;22.60;18.92;;;21.20;53.70;;;;;;4455791;58;21121;-31
2022/09/25 04:37:30;;;;;;;22.98;19.62;;;21.20;53.70;;;;;;4451096;59;21562;-28
2022/09/25 04:42:31;;;;;;;23.25;19.15;;;21.20;53.70;;;;;;4451754;58;21072;-27
2022/09/25 04:47:31;;;;;;;20.20;18.02;;;21.20;53.70;;;;;;4451254;58;21083;-30
2022/09/25 04:52:32;;;;;;;20.55;17.87;;;21.20;53.70;;;;;;4440076;62;21056;-29
2022/09/25 04:57:33;;;;;;;21.08;17.23;;;21.20;53.70;;;;;;4462336;59;21124;-32
2022/09/25 05:02:34;;;;;;;20.10;17.58;;;21.20;53.70;;;;;;4453688;58;21553;-34
2022/09/25 05:07:35;;;;;;;21.15;17.45;;;21.20;53.70;;;;;;4454430;58;21119;-29
2022/09/25 05:12:35;;;;;;;20.85;18.08;;;21.20;53.70;;;;;;4456313;58;21076;-32
2022/09/25 05:17:36;;;;;;;21.48;17.80;;;21.20;53.70;;;;;;4455393;58;21454;-28
2022/09/25 05:22:37;;;;;;;19.55;16.77;;;21.10;53.60;;;;;;4457301;58;21090;-28
2022/09/25 05:27:38;;;;;;;22.02;17.70;;;21.20;53.70;;;;;;4462098;58;21102;-27
2022/09/25 05:32:39;;;;;;;22.65;17.80;;;21.10;53.60;;;;;;4457891;58;21044;-30
2022/09/25 05:37:39;;;;;;;20.42;17.50;;;21.10;53.60;;;;;;4440922;62;21569;-28
2022/09/25 05:42:43;;;;;;;19.27;16.77;;;21.10;53.60;;;;;;4458221;58;21545;-29
2022/09/25 05:47:44;;;;;;;18.92;16.73;;;21.10;53.60;;;;;;4439649;63;21710;-33
2022/09/25 05:52:53;;;;;;;18.98;16.90;;;21.10;53.60;;;;;;4440347;62;21951;-27
2022/09/25 05:58:02;;;;;;;20.60;17.02;;;21.10;53.60;;;;;;4443523;59;21044;-31
2022/09/25 06:03:03;;;;;;;21.58;17.73;;;21.10;54.20;;;;;;4440533;63;21067;-30
2022/09/25 06:08:04;;;;;;;19.37;17.25;;;21.10;53.60;;;;;;4454033;59;21100;-26
2022/09/25 06:13:05;;;;;;;19.62;16.50;;;21.20;53.70;;;;;;4440465;63;21626;-28
2022/09/25 06:18:07;;;;;;;19.00;16.30;;;21.10;53.70;;;;;;4454538;59;21068;-30
2022/09/25 06:23:08;;;;;;;17.95;15.75;;;21.10;53.70;;;;;;4475653;59;21100;-31
2022/09/25 06:28:13;;;;;;;19.05;15.85;;;21.10;53.60;;;;;;4442092;59;21063;-30
2022/09/25 06:33:14;;;;;;;19.12;16.23;;;21.10;53.70;;;;;;4451881;59;21164;-33
2022/09/25 06:38:16;;;;;;;19.10;16.10;;;21.10;53.60;;;;;;4442711;58;21045;-28
2022/09/25 06:43:16;;;;;;;18.48;16.00;;;21.10;53.60;;;;;;4462981;59;21124;-33
2022/09/25 06:48:17;;;;;;;18.65;16.25;;;21.10;53.60;;;;;;4454665;58;21053;-28
2022/09/25 06:53:20;;;;;;;17.87;15.98;;;21.10;53.60;;;;;;4450694;59;21052;-35
2022/09/25 06:58:22;;;;;;;18.05;16.05;;;21.10;53.60;;;;;;4440438;63;21060;-27
2022/09/25 07:08:43;;;;;;;17.62;15.38;;;21.10;54.10;;;;;;4440338;59;21072;-30
2022/09/25 07:13:44;;;;;;;18.00;15.13;;;21.10;53.60;;;;;;4440281;63;22041;-28
2022/09/25 07:18:46;;;;;;;19.25;15.93;;;21.10;53.60;;;;;;4441168;59;21053;-28
2022/09/25 07:23:47;;;;;;;20.08;16.15;;;21.10;53.60;;;;;;4441285;58;21147;-26
2022/09/25 07:29:00;;;;;;;17.77;15.85;;;21.10;53.50;;;;;;4455691;59;21108;-27
2022/09/25 07:34:07;;;;;;;17.50;15.48;;;21.10;53.40;;;;;;4440110;63;21056;-30
2022/09/25 07:39:09;;;;;;;16.37;14.60;;;21.10;53.60;;;;;;4446695;59;21610;-28
2022/09/25 07:44:09;;;;;;;19.30;16.50;;;21.10;53.50;;;;;;4459034;59;21142;-28
2022/09/25 07:49:11;;;;;;;18.80;15.93;;;21.10;53.50;;;;;;4454480;58;21060;-28
2022/09/25 07:54:12;;;;;;;18.08;15.80;;;21.10;53.60;;;;;;4448757;59;21157;-30
2022/09/25 07:59:12;;;;;;;18.25;15.57;;;21.10;53.60;;;;;;4458034;58;21084;-30
2022/09/25 08:04:13;;;;;;;19.60;16.40;;;21.10;53.60;;;;;;4463426;58;21690;-29
2022/09/25 08:09:14;;;;;;;19.35;15.93;;;21.10;53.50;;;;;;4448217;58;21113;-28
2022/09/25 08:14:17;;;;;;;20.10;16.90;;;21.10;53.60;;;;;;4440704;58;21064;-28
2022/09/25 08:19:17;;;;;;;20.80;16.58;;;21.10;53.60;;;;;;4444271;58;21048;-28
2022/09/25 08:24:18;;;;;;;19.80;16.67;;;21.10;53.60;;;;;;4451746;58;21081;-28
2022/09/25 08:29:19;;;;;;;21.37;17.05;;;21.10;53.60;;;;;;4460259;58;22138;-29
2022/09/25 08:34:21;;;;;;;19.60;17.40;;;21.10;53.60;;;;;;4454424;58;21072;-28
2022/09/25 08:39:24;;;;;;;20.00;17.17;;;21.10;53.70;;;;;;4439843;58;21622;-27
2022/09/25 08:44:39;;;;;;;20.90;17.67;;;21.10;53.60;;;;;;4455848;59;21483;-30
2022/09/25 08:50:33;;;;;;;19.00;16.48;;;21.10;53.60;;;;;;4469130;59;21113;-30
2022/09/25 09:01:05;;;;;;;21.15;17.35;;;21.10;53.60;;;;;;4441270;59;21107;-27
2022/09/25 09:06:13;;;;;;;20.50;17.00;;;21.10;53.60;;;;;;4453871;59;21084;-28
2022/09/25 09:13:15;;;;;;;19.67;17.58;;;21.10;53.60;;;;;;4440250;63;21092;-31
2022/09/25 09:18:27;;;;;;;19.65;17.48;;;21.10;53.60;;;;;;4470014;59;21140;-27
2022/09/25 09:23:57;;;;;;;22.15;18.55;;;21.10;53.60;;;;;;4464547;59;21024;-27
2022/09/25 09:29:49;;;;;;;19.90;17.58;;;21.10;53.60;;;;;;4450959;59;21573;-30
2022/09/25 09:35:37;;;;;;;19.65;17.55;;;21.10;53.70;;;;;;4439995;60;21024;-31
2022/09/25 09:44:33;;;;;;;22.42;18.20;;;21.10;53.70;;;;;;4455110;59;21045;-33
2022/09/25 09:49:46;;;;;;;22.48;19.12;;;21.10;53.70;;;;;;4463610;59;21763;-27
2022/09/25 09:56:18;;;;;;;22.20;19.17;;;21.10;53.70;;;;;;4455118;59;21622;-32
2022/09/25 10:01:37;;;;;;;22.48;18.80;;;21.10;53.70;;;;;;4452467;59;21063;-34
2022/09/25 10:06:42;;;;;;;24.08;19.40;;;21.10;53.70;;;;;;4454052;59;21084;-31
2022/09/25 10:11:46;;;;;;;20.58;18.40;;;21.10;53.70;;;;;;4447439;59;21101;-34
2022/09/25 10:16:49;;;;;;;23.42;19.40;;;21.10;53.70;;;;;;4459562;59;21171;-32
2022/09/25 10:22:02;;;;;;;20.27;18.12;;;21.10;53.70;;;;;;4440167;59;21103;-28
2022/09/25 10:27:35;;;;;;;23.35;19.87;;;21.10;53.70;;;;;;4442111;59;21546;-30
2022/09/25 10:33:15;;;;;;;23.75;19.48;;;21.10;53.70;;;;;;4440103;60;21558;-31
2022/09/25 10:38:43;;;;;;;23.52;19.40;;;21.10;53.70;;;;;;4442238;59;21064;-31
2022/09/25 10:43:59;;;;;;;23.27;19.67;;;21.10;53.70;;;;;;4441128;59;21084;-29
2022/09/25 10:54:38;;;;;;;23.40;20.42;;;21.10;53.80;;;;;;4440561;59;21188;-27
2022/09/25 10:59:40;;;;;;;25.58;20.48;;;21.10;53.80;;;;;;4475199;59;21108;-35
2022/09/25 11:04:42;;;;;;;23.92;19.90;;;21.10;53.80;;;;;;4456569;59;21554;-34
2022/09/25 11:09:44;;;;;;;23.42;20.60;;;21.10;53.80;;;;;;4440141;63;21052;-29
2022/09/25 11:14:57;;;;;;;23.60;20.25;;;21.10;53.80;;;;;;4454106;59;21096;-32
2022/09/25 11:20:28;;;;;;;24.08;20.95;;;21.10;53.80;;;;;;4440080;63;21618;-34
2022/09/25 11:25:51;;;;;;;23.20;19.33;;;21.10;53.80;;;;;;4443758;59;21052;-28
2022/09/25 11:31:44;;;;;;;24.20;20.55;;;21.10;53.80;;;;;;4452167;59;21506;-33
2022/09/25 11:37:04;;;;;;;24.33;20.67;;;21.10;53.80;;;;;;4473888;59;21061;-34
2022/09/25 11:42:17;;;;;;;23.20;19.80;;;21.10;53.80;;;;;;4457486;59;21049;-31
2022/09/25 11:47:39;;;;;;;23.23;19.85;;;21.10;53.80;;;;;;4501597;59;21607;-30
2022/09/25 11:53:47;;;;;;;23.17;19.50;;;21.10;53.90;;;;;;4458830;59;21104;-30
2022/09/25 11:59:37;;;;;;;22.87;19.12;;;21.10;53.80;;;;;;4440211;59;21598;-30
2022/09/25 12:05:36;;;;;;;23.62;20.17;;;21.10;53.90;;;;;;4446833;59;21566;-26
2022/09/25 12:11:10;;;;;;;22.75;20.25;;;21.10;53.90;;;;;;4441613;59;21630;-27
2022/09/25 12:17:56;;;;;;;21.60;18.95;;;21.10;53.90;;;;;;4439988;63;21554;-32
2022/09/25 12:23:27;;;;;;;21.97;19.40;;;21.10;53.90;;;;;;4448852;59;21064;-32
2022/09/25 12:30:14;;;;;;;24.12;20.08;;;21.10;53.90;;;;;;4439166;59;21104;-30
2022/09/25 12:40:33;;;;;;;22.85;19.45;;;21.10;53.90;;;;;;4484783;59;21498;-29
2022/09/25 12:45:44;;;;;;;21.35;18.48;;;21.10;53.90;;;;;;4452481;59;21626;-28
2022/09/25 12:51:08;;;;;;;24.55;20.55;;;21.10;53.90;;;;;;4441784;59;21168;-29
2022/09/25 12:56:16;;;;;;;23.75;20.27;;;21.10;53.90;;;;;;4456803;59;21124;-30
2022/09/25 13:02:51;;;;;;;24.08;20.35;;;21.10;53.90;;;;;;4462315;59;21084;-28
2022/09/25 13:09:44;;;;;;;22.52;19.27;;;21.10;53.90;;;;;;4446667;59;21116;-33
2022/09/25 13:15:01;;;;;;;21.67;18.62;;;21.10;53.90;;;;;;4439912;63;21064;-27
2022/09/25 13:22:40;;;;;;;22.50;18.10;;;21.10;53.90;;;;;;4450168;59;21033;-32
2022/09/25 13:27:44;;;;;;;22.90;19.95;;;21.10;54.00;;;;;;4447274;59;21678;-34
2022/09/25 13:32:51;;;;;;;22.23;18.87;;;21.10;54.00;;;;;;4440012;63;21089;-28
2022/09/25 13:37:55;;;;;;;22.75;19.90;;;21.10;54.00;;;;;;4458383;59;21093;-32
2022/09/25 13:43:23;;;;;;;23.58;19.27;;;21.10;54.00;;;;;;4475156;59;21060;-34
2022/09/25 13:48:35;;;;;;;24.25;18.65;;;21.10;54.00;;;;;;4452051;59;21582;-27
2022/09/25 14:00:26;;;;;;;23.67;19.10;;;21.10;54.10;;;;;;4474261;59;21518;-35
2022/09/25 14:05:35;;;;;;;23.90;19.40;;;21.10;54.10;;;;;;4439587;59;21040;-30
2022/09/25 14:10:36;;;;;;;22.35;18.48;;;21.10;54.10;;;;;;4462356;59;21115;-26
2022/09/25 14:15:39;;;;;;;22.33;19.33;;;21.10;54.10;;;;;;4439829;63;21630;-27
2022/09/25 14:20:45;;;;;;;24.50;20.25;;;21.10;54.10;;;;;;4444354;59;21521;-27
2022/09/25 14:25:56;;;;;;;23.77;19.62;;;21.10;54.10;;;;;;4441827;59;21101;-31
2022/09/25 14:32:16;;;;;;;24.85;19.50;;;21.10;54.10;;;;;;4470893;59;21089;-28
2022/09/25 14:38:55;;;;;;;24.05;20.30;;;21.10;54.10;;;;;;4481633;59;21064;-29
2022/09/25 14:47:06;;;;;;;24.83;21.35;;;21.10;54.10;;;;;;4442740;59;22132;-29
2022/09/25 14:52:18;;;;;;;24.90;21.50;;;21.10;54.10;;;;;;4449848;59;21216;-32
2022/09/25 14:57:26;;;;;;;23.35;20.55;;;21.10;54.20;;;;;;4461637;59;21471;-28
2022/09/25 15:02:38;;;;;;;24.42;20.25;;;21.10;54.20;;;;;;4440471;63;21044;-29
2022/09/25 15:07:43;;;;;;;26.05;21.48;;;21.10;54.20;;;;;;4460746;59;21104;-26
2022/09/25 15:12:44;;;;;;;23.67;20.83;;;21.10;54.30;;;;;;4457157;59;21502;-31
2022/09/25 15:17:53;;;;;;;24.87;20.52;;;21.10;54.30;;;;;;4448773;59;21589;-27
2022/09/25 15:23:06;;;;;;;23.90;20.75;;;21.10;54.30;;;;;;4457984;59;21566;-31
2022/09/25 15:28:11;;;;;;;23.85;21.08;;;21.10;54.30;;;;;;4439555;59;21108;-31
2022/09/25 15:33:24;;;;;;;25.90;21.02;;;21.10;54.30;;;;;;4488231;59;21087;-27
2022/09/25 15:38:34;;;;;;;25.58;22.02;;;21.10;54.30;;;;;;4439818;59;21526;-35
2022/09/25 15:43:35;;;;;;;25.37;21.70;;;21.10;54.40;;;;;;4453470;59;21618;-29
2022/09/25 15:48:48;;;;;;;24.75;21.55;;;21.10;54.40;;;;;;4452190;58;21088;-29
2022/09/25 15:53:56;;;;;;;25.35;21.60;;;21.10;54.40;;;;;;4450726;59;21052;-26
2022/09/25 15:59:03;;;;;;;26.42;23.02;;;21.10;54.40;;;;;;4440601;63;21109;-26
2022/09/25 16:09:33;;;;;;;26.35;21.60;;;21.10;54.50;;;;;;4463471;59;21112;-30
2022/09/25 16:14:34;;;;;;;26.23;22.77;;;21.10;54.50;;;;;;4453057;59;21057;-29
2022/09/25 16:19:35;;;;;;;25.70;22.05;;;21.10;54.50;;;;;;4446375;59;21514;-26
2022/09/25 16:24:39;;;;;;;26.02;21.00;;;21.10;54.50;;;;;;4491674;58;21100;-31
2022/09/25 16:29:43;;;;;;;28.15;22.42;;;21.10;54.60;;;;;;4440858;63;21542;-33
2022/09/25 16:35:01;;;;;;;26.30;21.27;;;21.10;54.60;;;;;;4456108;59;21107;-28
2022/09/25 16:40:23;;;;;;;26.60;22.17;;;21.10;54.70;;;;;;4460077;59;21112;-29
2022/09/25 16:45:32;;;;;;;27.02;23.20;;;21.10;54.60;;;;;;4439702;63;21539;-29
2022/09/25 16:50:38;;;;;;;26.23;23.05;;;21.10;54.70;;;;;;4439104;63;21128;-28
2022/09/25 16:55:47;;;;;;;27.10;22.70;;;21.10;54.70;;;;;;4476772;59;21056;-29
2022/09/25 17:00:49;;;;;;;29.77;23.77;;;21.10;54.70;;;;;;4445754;59;21559;-27
2022/09/25 17:05:50;;;;;;;26.45;22.85;;;21.10;54.80;;;;;;4462520;59;21116;-30
2022/09/25 17:10:51;;;;;;;28.02;23.40;;;21.10;54.80;;;;;;4459671;58;21032;-33
2022/09/25 17:15:54;;;;;;;28.15;23.65;;;21.10;54.80;;;;;;4449767;59;21096;-29
2022/09/25 17:20:58;;;;;;;27.62;23.62;;;21.10;54.90;;;;;;4464221;58;21590;-31
2022/09/25 17:26:13;;;;;;;31.55;25.48;;;21.10;54.80;;;;;;4439427;63;21127;-26
2022/09/25 17:31:18;;;;;;;30.80;24.98;;;21.10;54.90;;;;;;4499403;59;21093;-28
2022/09/25 17:36:19;;;;;;;28.60;24.33;;;21.10;55.00;;;;;;4465517;59;21541;-29
2022/09/25 17:41:31;;;;;;;30.33;25.95;;;21.10;55.00;;;;;;4439455;58;21033;-27
2022/09/25 17:46:34;;;;;;;32.30;25.15;;;21.10;55.00;;;;;;4442514;59;21625;-28
2022/09/25 17:51:36;;;;;;;30.40;25.58;;;21.10;55.60;;;;;;4456896;58;21570;-27
2022/09/25 17:56:38;;;;;;;31.52;25.42;;;21.10;55.30;;;;;;4440312;63;21121;-30
2022/09/25 18:01:39;;;;;;;31.35;25.25;;;21.10;55.10;;;;;;4474365;58;21703;-28
2022/09/25 18:06:42;;;;;;;31.55;25.52;;;21.10;55.20;;;;;;4453643;58;21060;-27
2022/09/25 18:11:43;;;;;;;32.65;25.70;;;21.10;55.20;;;;;;4444944;58;21647;-31
2022/09/25 18:16:46;;;;;;;29.35;24.70;;;21.10;55.30;;;;;;4453147;58;21052;-32
2022/09/25 18:27:07;;;;;;;29.00;24.52;;;21.10;55.30;;;;;;4439052;59;21088;-31
2022/09/25 18:32:09;;;;;;;31.73;25.80;;;21.10;55.30;;;;;;4451906;58;21056;-32
2022/09/25 18:37:10;;;;;;;32.13;25.52;;;21.10;55.30;;;;;;4458472;58;21048;-33
2022/09/25 18:42:10;;;;;;;31.52;26.00;;;21.10;55.30;;;;;;4440527;63;21049;-32
2022/09/25 18:47:12;;;;;;;32.60;26.52;;;21.10;55.30;;;;;;4439710;58;21650;-27
2022/09/25 18:52:14;;;;;;;32.25;26.52;;;21.10;55.40;;;;;;4465327;59;21097;-29
2022/09/25 18:57:15;;;;;;;32.33;25.37;;;21.10;55.50;;;;;;4455990;58;21542;-27
2022/09/25 19:02:21;;;;;;;34.60;27.42;;;21.10;55.50;;;;;;4471682;58;21522;-32
2022/09/25 19:07:27;;;;;;;34.28;26.90;;;21.10;55.50;;;;;;4439766;59;21117;-32
2022/09/25 19:12:28;;;;;;;30.65;25.85;;;21.10;55.40;;;;;;4470442;59;21056;-28
2022/09/25 19:17:30;;;;;;;34.08;27.33;;;21.10;55.50;;;;;;4461762;58;21105;-32
2022/09/25 19:22:31;;;;;;;35.95;27.75;;;21.10;55.50;;;;;;4451420;59;21032;-30
2022/09/25 19:27:32;;;;;;;32.38;27.00;;;21.10;55.50;;;;;;4485433;59;21185;-28
2022/09/25 19:32:33;;;;;;;36.63;28.25;;;21.10;55.60;;;;;;4456380;58;21044;-27
2022/09/25 19:37:34;;;;;;;35.65;27.42;;;21.10;55.70;;;;;;4440250;62;21335;-27
2022/09/25 19:42:36;;;;;;;32.67;26.02;;;21.10;56.30;;;;;;4440117;63;21040;-26
2022/09/25 19:47:37;;;;;;;35.13;27.87;;;21.10;55.60;;;;;;4452632;59;21570;-29
2022/09/25 19:52:37;;;;;;;36.38;28.70;;;21.10;55.80;;;;;;4455214;58;21056;-30
2022/09/25 19:57:38;;;;;;;35.85;29.10;;;21.10;55.60;;;;;;4441379;58;21114;-29
2022/09/25 20:02:44;;;;;;;35.05;28.55;;;21.10;55.70;;;;;;4458365;58;21033;-29
2022/09/25 20:07:45;;;;;;;36.50;29.42;;;21.10;55.80;;;;;;4450064;59;21107;-28
2022/09/25 20:12:45;;;;;;;35.38;28.90;;;21.10;55.80;;;;;;4452826;58;21061;-33
2022/09/25 20:17:47;;;;;;;36.55;28.40;;;21.10;55.80;;;;;;4445149;58;21084;-34
2022/09/25 20:22:48;;;;;;;33.53;27.52;;;21.10;55.90;;;;;;4452246;58;21522;-33
2022/09/25 20:27:49;;;;;;;39.58;29.98;;;21.10;55.90;;;;;;4451525;59;21085;-27
2022/09/25 20:32:51;;;;;;;37.80;29.40;;;21.10;55.90;;;;;;4457389;59;21526;-29
2022/09/25 20:37:51;;;;;;;37.20;29.75;;;21.10;55.90;;;;;;4439609;63;21534;-32
2022/09/25 20:42:52;;;;;;;38.75;29.67;;;21.10;56.60;;;;;;4453346;58;21036;-31
2022/09/25 20:47:54;;;;;;;37.20;29.45;;;21.10;56.00;;;;;;4449638;58;21064;-28
2022/09/25 20:52:56;;;;;;;37.65;29.95;;;21.10;56.00;;;;;;4464203;58;21618;-31
2022/09/25 20:57:57;;;;;;;36.88;29.67;;;21.10;56.00;;;;;;4450602;58;21566;-30
2022/09/25 21:02:58;;;;;;;38.00;29.42;;;21.10;56.00;;;;;;4447279;58;21079;-30
2022/09/25 21:08:00;;;;;;;38.50;29.60;;;21.10;56.00;;;;;;4439669;58;21519;-28
2022/09/25 21:13:03;;;;;;;38.28;29.48;;;21.10;56.00;;;;;;4464640;58;21518;-32
2022/09/25 21:18:04;;;;;;;40.80;30.37;;;21.10;56.10;;;;;;4443643;59;21514;-27
2022/09/25 21:23:05;;;;;;;36.72;28.77;;;21.10;56.10;;;;;;4458928;58;21068;-31
2022/09/25 21:28:06;;;;;;;38.70;30.55;;;21.10;56.10;;;;;;4446510;59;21518;-26
2022/09/25 21:33:06;;;;;;;36.58;29.52;;;21.10;56.10;;;;;;4446072;58;21100;-33
2022/09/25 21:38:07;;;;;;;37.58;29.42;;;21.10;56.10;;;;;;4493179;58;21558;-25
2022/09/25 21:43:08;;;;;;;37.13;28.98;;;21.10;56.20;;;;;;4454364;58;21089;-27
2022/09/25 21:48:09;;;;;;;37.97;29.77;;;21.10;56.20;;;;;;4459980;58;21558;-26
2022/09/25 21:53:11;;;;;;;40.20;30.35;;;21.10;56.10;;;;;;4449008;58;21094;-31
2022/09/25 21:58:11;;;;;;;37.70;29.55;;;21.10;56.20;;;;;;4441183;58;21605;-28
2022/09/25 22:03:12;;;;;;;37.53;30.02;;;21.10;56.50;;;;;;4446008;58;21049;-28
2022/09/25 22:08:13;;;;;;;38.65;30.33;;;21.10;56.30;;;;;;4449063;58;21084;-29
2022/09/25 22:13:14;;;;;;;36.72;29.08;;;21.10;56.20;;;;;;4457513;58;21032;-30
2022/09/25 22:18:14;;;;;;;37.28;28.45;;;21.10;56.20;;;;;;4469847;58;21056;-29
2022/09/25 22:23:15;;;;;;;36.55;28.40;;;21.10;56.20;;;;;;4450789;58;21087;-32
2022/09/25 22:28:20;;;;;;;37.88;29.10;;;21.10;56.30;;;;;;4448686;58;21056;-34
2022/09/25 22:33:20;;;;;;;38.22;28.92;;;21.10;56.30;;;;;;4468644;59;21016;-29
2022/09/25 22:38:21;;;;;;;38.78;28.92;;;21.10;56.30;;;;;;4447971;58;21096;-27
2022/09/25 22:43:22;;;;;;;38.33;29.17;;;21.10;56.30;;;;;;4440113;58;21527;-28
2022/09/25 22:48:23;;;;;;;36.45;28.62;;;21.10;56.30;;;;;;4439322;60;21164;-30
2022/09/25 22:53:24;;;;;;;39.28;29.60;;;21.10;56.30;;;;;;4456937;58;21133;-30
2022/09/25 22:58:25;;;;;;;36.92;28.52;;;21.10;56.30;;;;;;4449047;59;21052;-29
2022/09/25 23:03:26;;;;;;;36.35;27.92;;;21.10;56.30;;;;;;4479860;58;21113;-30
2022/09/25 23:08:27;;;;;;;34.35;27.60;;;21.10;56.50;;;;;;4447700;59;21048;-31
2022/09/25 23:13:29;;;;;;;34.97;28.15;;;21.10;56.40;;;;;;4452706;59;21104;-30
2022/09/25 23:18:34;;;;;;;36.38;28.45;;;21.10;56.40;;;;;;4439998;63;21056;-30
2022/09/25 23:23:35;;;;;;;35.30;28.08;;;21.10;56.40;;;;;;4474319;59;21120;-33
2022/09/25 23:28:38;;;;;;;34.97;28.00;;;21.10;56.40;;;;;;4442513;58;21060;-27
2022/09/25 23:33:39;;;;;;;34.05;27.52;;;21.10;56.40;;;;;;4462255;59;21084;-31
2022/09/25 23:38:45;;;;;;;35.35;29.08;;;21.10;56.40;;;;;;4440167;63;21116;-28
2022/09/25 23:43:47;;;;;;;34.58;27.23;;;21.10;56.50;;;;;;4457333;59;21128;-27
2022/09/25 23:48:48;;;;;;;33.67;27.00;;;21.10;56.40;;;;;;4470411;59;21188;-33
2022/09/25 23:53:49;;;;;;;34.22;27.02;;;21.10;56.50;;;;;;4440819;59;21076;-33
2022/09/25 23:58:50;;;;;;;35.28;27.70;;;21.10;56.50;;;;;;4440461;62;21084;-31
